createdAt,value
2022-08-22T00:00:14.072Z,93937.81
2022-08-22T00:02:53.998Z,93972.41
2022-08-22T00:03:00.023Z,93972.00
2022-08-22T00:03:11.074Z,93959.59
2022-08-22T00:03:17.310Z,93944.22
2022-08-22T00:06:09.288Z,93937.84
2022-08-22T00:09:12.116Z,93949.19
2022-08-22T00:11:46.008Z,93944.41
2022-08-22T00:14:52.756Z,93945.38
2022-08-22T00:17:24.438Z,93946.03
2022-08-22T00:20:01.213Z,93945.09
2022-08-22T00:23:18.873Z,93939.00
2022-08-22T00:26:05.496Z,93944.84
2022-08-22T00:28:45.561Z,93940.84
2022-08-22T00:31:19.479Z,93931.53
2022-08-22T00:34:23.740Z,93930.84
2022-08-22T00:37:21.796Z,93931.06
2022-08-22T00:40:17.164Z,93928.69
2022-08-22T00:43:05.696Z,93926.31
2022-08-22T00:45:58.653Z,93932.59
2022-08-22T00:48:44.724Z,93939.50
2022-08-22T00:51:30.664Z,93929.38
2022-08-22T00:54:33.138Z,93929.22
2022-08-22T00:57:36.992Z,93927.19
2022-08-22T01:00:24.408Z,93927.97
2022-08-22T01:03:28.125Z,93931.91
2022-08-22T01:05:56.701Z,93919.56
2022-08-22T01:08:40.122Z,93918.44
2022-08-22T01:11:36.093Z,93918.94
2022-08-22T01:14:12.744Z,93918.91
2022-08-22T01:16:59.835Z,93921.91
2022-08-22T01:19:58.613Z,93921.59
2022-08-22T01:23:00.696Z,93915.84
2022-08-22T01:25:56.696Z,93919.34
2022-08-22T01:28:34.265Z,93917.09
2022-08-22T01:31:12.080Z,93924.72
2022-08-22T01:34:13.337Z,93925.38
2022-08-22T01:37:19.966Z,93931.22
2022-08-22T01:40:08.703Z,93922.38
2022-08-22T01:42:56.734Z,93927.00
2022-08-22T01:45:56.352Z,93926.97
2022-08-22T01:48:40.381Z,93920.97
2022-08-22T01:51:17.985Z,93922.38
2022-08-22T01:53:52.294Z,93923.31
2022-08-22T01:56:24.415Z,93924.28
2022-08-22T01:59:03.684Z,93919.19
2022-08-22T02:01:35.175Z,93928.97
2022-08-22T02:04:07.285Z,93925.34
2022-08-22T02:06:54.076Z,93924.38
2022-08-22T02:09:35.051Z,93920.19
2022-08-22T02:12:32.985Z,93927.81
2022-08-22T02:15:43.997Z,93921.97
2022-08-22T02:18:28.482Z,93920.81
2022-08-22T02:21:22.629Z,93929.53
2022-08-22T02:24:17.952Z,93927.84
2022-08-22T02:27:14.425Z,93937.25
2022-08-22T02:29:55.318Z,93927.47
2022-08-22T02:32:41.788Z,93931.97
2022-08-22T02:35:19.659Z,93941.78
2022-08-22T02:38:09.887Z,93940.09
2022-08-22T02:40:40.889Z,93941.13
2022-08-22T02:43:22.708Z,93942.94
2022-08-22T02:46:05.242Z,93947.59
2022-08-22T02:48:50.616Z,93951.00
2022-08-22T02:51:41.571Z,93948.41
2022-08-22T02:54:27.560Z,93955.00
2022-08-22T02:57:04.860Z,93957.31
2022-08-22T03:00:02.333Z,93963.16
2022-08-22T03:03:01.688Z,93965.38
2022-08-22T03:05:32.125Z,93964.97
2022-08-22T03:08:06.843Z,93966.84
2022-08-22T03:10:42.280Z,93967.53
2022-08-22T03:13:26.238Z,93976.03
2022-08-22T03:16:01.046Z,93983.69
2022-08-22T03:18:44.600Z,93985.19
2022-08-22T03:21:28.043Z,93993.16
2022-08-22T03:24:05.486Z,93995.13
2022-08-22T03:26:57.727Z,94000.31
2022-08-22T03:29:28.604Z,93993.47
2022-08-22T03:32:17.766Z,93998.94
2022-08-22T03:35:01.782Z,94005.72
2022-08-22T03:37:33.492Z,94012.50
2022-08-22T03:40:09.383Z,94018.25
2022-08-22T03:42:59.613Z,94012.69
2022-08-22T03:45:42.901Z,94017.06
2022-08-22T03:48:11.578Z,94024.41
2022-08-22T03:50:40.117Z,94019.66
2022-08-22T03:53:36.281Z,94018.44
2022-08-22T03:56:16.803Z,94020.38
2022-08-22T03:59:10.403Z,94026.63
2022-08-22T04:02:02.755Z,94025.09
2022-08-22T04:05:00.193Z,94036.22
2022-08-22T04:07:47.173Z,94022.88
2022-08-22T04:10:39.613Z,94029.41
2022-08-22T04:13:17.405Z,94027.34
2022-08-22T04:16:16.923Z,94025.56
2022-08-22T04:19:08.123Z,94026.41
2022-08-22T04:21:36.971Z,94020.63
2022-08-22T04:24:15.673Z,94015.84
2022-08-22T04:27:10.231Z,94012.19
2022-08-22T04:29:59.900Z,94018.97
2022-08-22T04:32:52.229Z,94016.88
2022-08-22T04:35:40.795Z,94020.94
2022-08-22T04:38:14.053Z,94014.81
2022-08-22T04:41:04.360Z,94011.63
2022-08-22T04:43:33.370Z,94007.66
2022-08-22T04:46:12.096Z,94019.25
2022-08-22T04:48:47.479Z,94011.88
2022-08-22T04:51:27.544Z,94014.06
2022-08-22T04:54:34.043Z,94009.47
2022-08-22T04:57:17.746Z,94010.41
2022-08-22T04:59:47.240Z,94013.91
2022-08-22T05:02:24.485Z,94010.75
2022-08-22T05:05:05.271Z,94009.44
2022-08-22T05:08:01.250Z,94011.31
2022-08-22T05:10:39.829Z,94003.34
2022-08-22T05:13:31.775Z,94001.47
2022-08-22T05:16:04.764Z,94004.44
2022-08-22T05:18:46.138Z,94006.06
2022-08-22T05:21:16.963Z,94009.06
2022-08-22T05:24:01.467Z,94008.00
2022-08-22T05:26:34.971Z,94004.53
2022-08-22T05:29:09.438Z,94004.00
2022-08-22T05:31:48.572Z,93997.84
2022-08-22T05:34:23.160Z,93997.88
2022-08-22T05:37:08.032Z,94003.50
2022-08-22T05:39:41.115Z,93986.63
2022-08-22T05:42:14.672Z,94007.03
2022-08-22T05:44:43.931Z,94000.88
2022-08-22T05:47:19.201Z,94003.56
2022-08-22T05:50:06.719Z,94010.00
2022-08-22T05:52:51.413Z,94009.19
2022-08-22T05:55:25.563Z,94001.44
2022-08-22T05:58:07.457Z,94005.47
2022-08-22T06:00:42.105Z,94006.03
2022-08-22T06:03:36.284Z,94014.88
2022-08-22T06:06:16.389Z,94014.38
2022-08-22T06:09:03.157Z,94017.84
2022-08-22T06:12:21.280Z,94018.66
2022-08-22T06:15:12.052Z,94018.66
2022-08-22T06:17:50.709Z,94008.50
2022-08-22T06:20:29.035Z,94009.31
2022-08-22T06:23:03.869Z,94019.50
2022-08-22T06:25:35.870Z,94015.47
2022-08-22T06:28:14.497Z,94007.19
2022-08-22T06:30:47.943Z,94008.25
2022-08-22T06:33:27.032Z,94013.34
2022-08-22T06:36:32.589Z,94004.78
2022-08-22T06:39:03.968Z,94017.09
2022-08-22T06:41:38.177Z,94001.84
2022-08-22T06:44:08.894Z,94010.94
2022-08-22T06:46:39.768Z,94009.63
2022-08-22T06:49:10.237Z,94006.66
2022-08-22T06:51:40.608Z,94008.56
2022-08-22T06:54:19.325Z,94010.69
2022-08-22T06:56:50.903Z,94003.66
2022-08-22T06:59:31.907Z,94018.66
2022-08-22T07:02:00.628Z,94008.50
2022-08-22T07:04:30.328Z,94007.94
2022-08-22T07:07:02.148Z,94013.31
2022-08-22T07:09:35.811Z,94016.25
2022-08-22T07:12:13.159Z,94009.56
2022-08-22T07:14:45.751Z,94005.28
2022-08-22T07:17:24.932Z,94019.72
2022-08-22T07:20:06.274Z,94002.31
2022-08-22T07:22:38.800Z,94012.75
2022-08-22T07:25:17.007Z,94014.06
2022-08-22T07:28:05.071Z,94007.38
2022-08-22T07:31:12.704Z,94011.13
2022-08-22T07:33:55.327Z,94010.28
2022-08-22T07:36:41.725Z,94013.22
2022-08-22T07:39:23.967Z,94010.25
2022-08-22T07:42:04.917Z,94005.16
2022-08-22T07:45:04.219Z,94007.81
2022-08-22T07:48:04.152Z,94002.44
2022-08-22T07:50:39.069Z,94001.63
2022-08-22T07:53:41.093Z,93999.47
2022-08-22T07:56:35.549Z,93997.31
2022-08-22T07:59:32.436Z,93999.16
2022-08-22T08:02:03.266Z,93994.34
2022-08-22T08:04:40.416Z,93999.69
2022-08-22T08:07:12.793Z,94002.63
2022-08-22T08:09:51.238Z,94000.22
2022-08-22T08:12:23.328Z,93998.06
2022-08-22T08:14:55.005Z,93982.28
2022-08-22T08:17:36.739Z,93987.09
2022-08-22T08:20:13.628Z,93984.97
2022-08-22T08:22:47.748Z,93988.44
2022-08-22T08:25:23.221Z,93987.31
2022-08-22T08:28:11.869Z,93985.69
2022-08-22T08:30:56.832Z,93987.56
2022-08-22T08:33:29.561Z,93985.16
2022-08-22T08:36:09.017Z,93983.00
2022-08-22T08:38:55.058Z,93990.47
2022-08-22T08:41:41.734Z,93988.31
2022-08-22T08:44:28.438Z,93992.34
2022-08-22T08:47:17.726Z,93987.28
2022-08-22T08:50:34.703Z,93990.44
2022-08-22T08:53:18.326Z,93988.81
2022-08-22T08:56:03.372Z,93992.59
2022-08-22T08:58:53.148Z,93991.53
2022-08-22T09:01:46.173Z,93989.13
2022-08-22T09:05:10.625Z,93985.94
2022-08-22T09:08:02.623Z,93991.81
2022-08-22T09:10:58.496Z,93991.53
2022-08-22T09:13:40.660Z,93987.28
2022-08-22T09:16:33.763Z,93988.34
2022-08-22T09:19:26.752Z,93982.56
2022-08-22T09:22:50.794Z,93984.53
2022-08-22T09:25:24.727Z,93978.66
2022-08-22T09:28:22.842Z,93979.97
2022-08-22T09:31:44.768Z,93978.78
2022-08-22T09:34:33.599Z,93979.00
2022-08-22T09:37:21.110Z,93974.66
2022-08-22T09:43:08.575Z,93972.56
2022-08-22T09:46:04.385Z,93973.47
2022-08-22T09:48:59.457Z,93974.94
2022-08-22T09:52:15.494Z,93976.66
2022-08-22T09:55:08.110Z,93977.47
2022-08-22T09:58:20.026Z,93971.97
2022-08-22T10:01:18.231Z,93969.81
2022-08-22T10:04:13.976Z,93978.09
2022-08-22T10:07:11.880Z,93983.84
2022-08-22T10:10:06.086Z,93978.75
2022-08-22T10:12:50.013Z,93976.59
2022-08-22T10:15:53.132Z,93977.69
2022-08-22T10:18:33.864Z,93981.19
2022-08-22T10:21:02.498Z,93987.34
2022-08-22T10:23:46.084Z,93987.38
2022-08-22T10:26:22.647Z,93987.63
2022-08-22T10:29:30.077Z,93989.53
2022-08-22T10:32:14.779Z,93990.56
2022-08-22T10:34:51.058Z,93988.94
2022-08-22T10:37:39.571Z,93983.03
2022-08-22T10:40:24.509Z,93985.16
2022-08-22T10:43:20.440Z,93982.44
2022-08-22T10:46:12.627Z,93983.50
2022-08-22T10:49:05.838Z,93985.63
2022-08-22T10:51:52.985Z,93986.97
2022-08-22T10:54:29.270Z,93985.09
2022-08-22T10:57:39.071Z,93977.66
2022-08-22T11:00:34.639Z,93987.47
2022-08-22T11:03:21.339Z,93990.69
2022-08-22T11:05:56.314Z,93991.03
2022-08-22T11:08:55.416Z,93995.28
2022-08-22T11:11:37.624Z,93989.69
2022-08-22T11:14:09.182Z,93998.50
2022-08-22T11:16:48.260Z,93993.91
2022-08-22T11:19:26.941Z,93998.31
2022-08-22T11:22:33.697Z,93998.53
2022-08-22T11:25:29.356Z,93995.97
2022-08-22T11:28:29.204Z,93998.69
2022-08-22T11:31:11.396Z,94004.47
2022-08-22T11:34:00.535Z,93999.69
2022-08-22T11:36:46.555Z,94003.38
2022-08-22T11:39:21.085Z,94003.94
2022-08-22T11:42:21.996Z,94003.22
2022-08-22T11:44:53.593Z,94001.38
2022-08-22T11:47:28.276Z,93999.16
2022-08-22T11:50:22.566Z,94011.63
2022-08-22T11:53:07.531Z,94005.66
2022-08-22T11:55:54.183Z,94004.34
2022-08-22T11:58:28.944Z,94004.00
2022-08-22T12:01:17.311Z,94005.59
2022-08-22T12:04:09.817Z,94007.47
2022-08-22T12:06:54.433Z,94009.88
2022-08-22T12:09:57.215Z,94005.31
2022-08-22T12:12:54.727Z,94010.34
2022-08-22T12:15:30.656Z,94010.03
2022-08-22T12:18:29.656Z,94007.84
2022-08-22T12:21:07.067Z,94006.25
2022-08-22T12:23:49.702Z,94003.53
2022-08-22T12:26:24.953Z,94011.53
2022-08-22T12:29:40.082Z,94011.81
2022-08-22T12:32:44.053Z,94014.50
2022-08-22T12:35:58.197Z,94011.78
2022-08-22T12:38:31.297Z,94009.34
2022-08-22T12:41:46.742Z,94008.81
2022-08-22T12:44:40.193Z,94017.97
2022-08-22T12:47:45.592Z,94020.13
2022-08-22T12:50:32.297Z,94010.63
2022-08-22T12:53:30.423Z,94023.41
2022-08-22T12:56:47.372Z,94024.47
2022-08-22T12:59:35.895Z,94018.44
2022-08-22T13:02:26.752Z,94025.13
2022-08-22T13:05:01.976Z,94023.09
2022-08-22T13:07:38.880Z,94029.53
2022-08-22T13:10:17.371Z,94027.63
2022-08-22T13:12:53.028Z,94026.13
2022-08-22T13:15:53.998Z,94027.47
2022-08-22T13:18:30.337Z,94030.28
2022-08-22T13:21:04.404Z,94028.16
2022-08-22T13:23:58.408Z,94035.66
2022-08-22T13:26:35.223Z,94032.19
2022-08-22T13:29:27.560Z,94041.03
2022-08-22T13:32:10.973Z,94040.84
2022-08-22T13:34:46.039Z,94042.75
2022-08-22T13:37:24.481Z,94048.72
2022-08-22T13:40:02.488Z,94049.31
2022-08-22T13:42:33.974Z,94038.19
2022-08-22T13:45:18.632Z,94052.16
2022-08-22T13:47:58.588Z,94048.22
2022-08-22T13:50:37.579Z,94046.94
2022-08-22T13:53:42.323Z,94046.19
2022-08-22T13:56:26.863Z,94046.81
2022-08-22T13:59:00.681Z,94054.84
2022-08-22T14:01:53.023Z,94045.50
2022-08-22T14:04:36.419Z,94050.91
2022-08-22T14:07:05.317Z,94049.66
2022-08-22T14:09:57.085Z,94047.81
2022-08-22T14:12:33.678Z,94051.59
2022-08-22T14:15:45.396Z,94059.41
2022-08-22T14:18:45.500Z,94065.59
2022-08-22T14:21:33.427Z,94061.91
2022-08-22T14:24:30.556Z,94059.78
2022-08-22T14:26:59.229Z,94060.88
2022-08-22T14:29:50.106Z,94055.03
2022-08-22T14:32:26.663Z,94055.31
2022-08-22T14:35:00.480Z,94062.56
2022-08-22T14:37:40.058Z,94055.34
2022-08-22T14:40:30.368Z,94059.69
2022-08-22T14:43:25.751Z,94051.69
2022-08-22T14:46:03.098Z,94055.69
2022-08-22T14:48:57.698Z,94062.13
2022-08-22T14:51:28.067Z,94057.28
2022-08-22T14:54:21.643Z,94061.31
2022-08-22T14:56:53.566Z,94057.53
2022-08-22T14:59:45.045Z,94047.59
2022-08-22T15:02:34.626Z,94047.31
2022-08-22T15:05:21.408Z,94061.22
2022-08-22T15:07:57.150Z,94062.31
2022-08-22T15:10:31.797Z,94063.34
2022-08-22T15:13:09.095Z,94060.38
2022-08-22T15:15:53.440Z,94056.00
2022-08-22T15:18:29.852Z,94068.59
2022-08-22T15:21:03.879Z,94068.28
2022-08-22T15:23:45.458Z,94061.25
2022-08-22T15:26:34.357Z,94069.22
2022-08-22T15:29:25.305Z,94070.25
2022-08-22T15:31:59.001Z,94072.88
2022-08-22T15:34:43.294Z,94066.06
2022-08-22T15:37:17.966Z,94080.56
2022-08-22T15:40:29.679Z,94072.69
2022-08-22T15:42:58.512Z,94068.75
2022-08-22T15:45:39.623Z,94074.34
2022-08-22T15:48:26.687Z,94072.28
2022-08-22T15:51:00.448Z,94080.81
2022-08-22T15:53:57.940Z,94083.16
2022-08-22T15:56:41.817Z,94072.06
2022-08-22T15:59:47.716Z,94078.09
2022-08-22T16:02:39.223Z,94082.38
2022-08-22T16:05:14.647Z,94090.78
2022-08-22T16:08:01.541Z,94092.34
2022-08-22T16:10:51.342Z,94085.69
2022-08-22T16:13:28.866Z,94089.47
2022-08-22T16:16:03.652Z,94092.88
2022-08-22T16:18:35.365Z,94085.63
2022-08-22T16:21:15.449Z,94089.03
2022-08-22T16:23:55.140Z,94096.16
2022-08-22T16:26:32.983Z,94091.44
2022-08-22T16:29:08.133Z,94086.97
2022-08-22T16:31:45.843Z,94095.72
2022-08-22T16:34:28.707Z,94092.59
2022-08-22T16:37:22.792Z,94094.44
2022-08-22T16:40:13.124Z,94100.03
2022-08-22T16:43:12.948Z,94104.88
2022-08-22T16:45:46.882Z,94105.56
2022-08-22T16:48:27.519Z,94104.78
2022-08-22T16:51:05.560Z,94103.28
2022-08-22T16:53:37.213Z,94111.09
2022-08-22T16:56:32.157Z,94102.31
2022-08-22T16:59:23.499Z,94100.63
2022-08-22T17:02:08.511Z,94105.59
2022-08-22T17:04:46.229Z,94111.31
2022-08-22T17:07:34.053Z,94106.16
2022-08-22T17:10:27.974Z,94103.81
2022-08-22T17:13:18.331Z,94102.34
2022-08-22T17:15:49.239Z,94102.81
2022-08-22T17:18:41.627Z,94098.97
2022-08-22T17:21:51.849Z,94102.84
2022-08-22T17:24:34.492Z,94100.03
2022-08-22T17:27:10.723Z,94095.91
2022-08-22T17:29:46.089Z,94099.72
2022-08-22T17:32:23.259Z,94103.06
2022-08-22T17:35:00.976Z,94106.66
2022-08-22T17:37:50.614Z,94101.69
2022-08-22T17:40:40.163Z,94097.84
2022-08-22T17:43:33.598Z,94102.56
2022-08-22T17:46:32.671Z,94102.09
2022-08-22T17:49:32.277Z,94098.44
2022-08-22T17:52:19.256Z,94099.19
2022-08-22T17:55:24.542Z,94100.84
2022-08-22T17:58:37.836Z,94092.88
2022-08-22T18:01:38.175Z,94085.75
2022-08-22T18:04:12.640Z,94092.28
2022-08-22T18:06:55.458Z,94092.63
2022-08-22T18:09:39.374Z,94100.25
2022-08-22T18:12:23.096Z,94093.06
2022-08-22T18:15:01.374Z,94087.47
2022-08-22T18:17:39.036Z,94087.22
2022-08-22T18:20:17.215Z,94086.66
2022-08-22T18:22:55.991Z,94089.03
2022-08-22T18:25:24.669Z,94083.78
2022-08-22T18:28:05.113Z,94078.22
2022-08-22T18:30:55.859Z,94067.81
2022-08-22T18:33:34.523Z,94074.84
2022-08-22T18:36:20.533Z,94071.94
2022-08-22T18:39:08.372Z,94072.22
2022-08-22T18:41:43.036Z,94068.38
2022-08-22T18:44:14.703Z,94077.22
2022-08-22T18:46:47.774Z,94069.47
2022-08-22T18:49:25.938Z,94078.72
2022-08-22T18:52:18.265Z,94073.53
2022-08-22T18:55:17.208Z,94078.88
2022-08-22T18:58:04.298Z,94096.06
2022-08-22T19:00:57.474Z,94090.69
2022-08-22T19:03:40.848Z,94073.97
2022-08-22T19:06:20.696Z,94080.19
2022-08-22T19:09:09.053Z,94076.59
2022-08-22T19:12:16.064Z,94070.63
2022-08-22T19:15:07.698Z,94069.81
2022-08-22T19:17:59.192Z,94061.03
2022-08-22T19:20:51.287Z,94060.41
2022-08-22T19:23:38.419Z,94069.97
2022-08-22T19:26:42.368Z,94068.44
2022-08-22T19:29:19.356Z,94054.25
2022-08-22T19:31:51.328Z,94067.31
2022-08-22T19:34:33.413Z,94058.19
2022-08-22T19:37:30.842Z,94059.81
2022-08-22T19:40:09.330Z,94051.16
2022-08-22T19:42:41.209Z,94062.59
2022-08-22T19:45:30.237Z,94056.34
2022-08-22T19:48:11.703Z,94049.28
2022-08-22T19:50:43.404Z,94050.06
2022-08-22T19:53:40.261Z,94048.84
2022-08-22T19:56:37.002Z,94051.31
2022-08-22T20:00:01.470Z,94049.94
2022-08-22T20:02:52.994Z,94040.84
2022-08-22T20:05:39.129Z,94038.34
2022-08-22T20:08:29.372Z,94039.78
2022-08-22T20:10:57.921Z,94046.56
2022-08-22T20:13:31.195Z,94031.34
2022-08-22T20:16:25.016Z,94032.63
2022-08-22T20:19:09.345Z,94046.56
2022-08-22T20:21:45.340Z,94039.66
2022-08-22T20:24:52.859Z,94035.41
2022-08-22T20:27:24.289Z,94040.47
2022-08-22T20:29:56.073Z,94031.44
2022-08-22T20:32:26.591Z,94035.06
2022-08-22T20:35:00.094Z,94030.03
2022-08-22T20:38:05.303Z,94018.75
2022-08-22T20:40:54.945Z,94013.53
2022-08-22T20:43:39.394Z,94011.09
2022-08-22T20:46:25.900Z,94011.56
2022-08-22T20:48:57.255Z,94013.16
2022-08-22T20:51:28.458Z,94010.91
2022-08-22T20:54:10.394Z,94006.69
2022-08-22T20:57:03.455Z,94006.88
2022-08-22T20:59:38.575Z,94007.00
2022-08-22T21:02:36.250Z,93992.78
2022-08-22T21:05:10.531Z,93994.53
2022-08-22T21:07:45.435Z,93996.00
2022-08-22T21:10:37.823Z,93987.41
2022-08-22T21:13:11.137Z,93992.59
2022-08-22T21:15:53.286Z,93997.06
2022-08-22T21:18:45.959Z,93987.66
2022-08-22T21:21:29.807Z,93983.31
2022-08-22T21:24:09.542Z,93971.53
2022-08-22T21:26:48.184Z,93972.47
2022-08-22T21:29:16.873Z,93971.78
2022-08-22T21:32:06.330Z,93973.59
2022-08-22T21:34:44.624Z,93961.59
2022-08-22T21:37:25.139Z,93965.34
2022-08-22T21:40:14.520Z,93956.78
2022-08-22T21:42:47.197Z,93964.72
2022-08-22T21:45:31.055Z,93962.59
2022-08-22T21:47:59.960Z,93946.78
2022-08-22T21:50:39.776Z,93948.59
2022-08-22T21:53:14.110Z,93951.94
2022-08-22T21:55:49.380Z,93942.28
2022-08-22T21:58:36.238Z,93931.75
2022-08-22T22:01:29.162Z,93935.34
2022-08-22T22:04:00.437Z,93932.88
2022-08-22T22:06:29.624Z,93934.69
2022-08-22T22:08:58.300Z,93928.78
2022-08-22T22:11:26.940Z,93931.28
2022-08-22T22:13:55.813Z,93939.28
2022-08-22T22:16:29.287Z,93924.69
2022-08-22T22:18:58.621Z,93922.44
2022-08-22T22:21:27.243Z,93920.69
2022-08-22T22:23:57.759Z,93909.28
2022-08-22T22:26:28.082Z,93915.63
2022-08-22T22:28:56.515Z,93915.63
2022-08-22T22:31:25.133Z,93909.69
2022-08-22T22:33:53.543Z,93909.94
2022-08-22T22:36:26.712Z,93917.53
2022-08-22T22:38:56.477Z,93918.56
2022-08-22T22:41:26.840Z,93916.16
2022-08-22T22:43:56.632Z,93913.44
2022-08-22T22:46:28.220Z,93911.13
2022-08-22T22:48:58.329Z,93908.59
2022-08-22T22:51:27.133Z,93906.88
2022-08-22T22:53:58.171Z,93908.66
2022-08-22T22:56:27.544Z,93903.63
2022-08-22T22:59:01.002Z,93904.75
2022-08-22T23:02:09.243Z,93906.47
2022-08-22T23:04:50.999Z,93911.78
2022-08-22T23:07:20.333Z,93903.50
2022-08-22T23:09:52.982Z,93908.03
2022-08-22T23:12:24.244Z,93909.13
2022-08-22T23:14:52.646Z,93903.44
2022-08-22T23:17:21.664Z,93901.66
2022-08-22T23:19:51.963Z,93905.97
2022-08-22T23:22:21.500Z,93887.22
2022-08-22T23:24:51.301Z,93894.38
2022-08-22T23:27:20.475Z,93886.56
2022-08-22T23:29:48.985Z,93888.16
2022-08-22T23:32:17.758Z,93891.41
2022-08-22T23:34:50.144Z,93882.53
2022-08-22T23:37:21.510Z,93873.84
2022-08-22T23:39:51.025Z,93870.34
2022-08-22T23:42:19.563Z,93870.59
2022-08-22T23:44:47.898Z,93869.69
2022-08-22T23:47:16.865Z,93870.63
2022-08-22T23:49:46.044Z,93871.34
2022-08-22T23:52:15.242Z,93882.81
2022-08-22T23:54:43.710Z,93879.97
2022-08-22T23:57:12.802Z,93875.94
2022-08-22T23:59:48.449Z,93872.81
